createdAt,value
2022-11-27T00:01:46.416Z,7.22
2022-11-27T00:04:16.805Z,7.50
2022-11-27T00:06:46.438Z,9.45
2022-11-27T00:09:17.504Z,7.13
2022-11-27T00:11:51.130Z,7.93
2022-11-27T00:14:26.224Z,9.55
2022-11-27T00:17:03.716Z,7.85
2022-11-27T00:19:37.656Z,9.65
2022-11-27T00:22:08.047Z,8.77
2022-11-27T00:24:38.063Z,12.02
2022-11-27T00:27:07.977Z,8.88
2022-11-27T00:29:39.315Z,7.88
2022-11-27T00:32:09.081Z,7.60
2022-11-27T00:34:40.299Z,8.35
2022-11-27T00:37:13.570Z,9.95
2022-11-27T00:39:48.647Z,7.15
2022-11-27T00:42:22.069Z,8.45
2022-11-27T00:44:52.387Z,7.85
2022-11-27T00:47:22.005Z,12.68
2022-11-27T00:49:52.718Z,8.27
2022-11-27T00:52:22.248Z,10.20
2022-11-27T00:54:52.613Z,8.68
2022-11-27T00:57:22.645Z,8.25
2022-11-27T00:59:52.741Z,8.25
2022-11-27T01:02:22.773Z,7.88
2022-11-27T01:04:53.211Z,9.85
2022-11-27T01:07:22.850Z,10.95
2022-11-27T01:09:52.774Z,10.77
2022-11-27T01:12:22.789Z,10.32
2022-11-27T01:14:52.959Z,12.38
2022-11-27T01:17:22.670Z,11.25
2022-11-27T01:19:52.185Z,7.15
2022-11-27T01:22:22.203Z,12.98
2022-11-27T01:24:53.714Z,10.95
2022-11-27T01:27:24.085Z,9.45
2022-11-27T01:29:55.328Z,10.70
2022-11-27T01:32:25.339Z,8.68
2022-11-27T01:34:55.492Z,27.83
2022-11-27T01:37:25.577Z,10.05
2022-11-27T01:39:55.485Z,8.50
2022-11-27T01:42:25.406Z,11.55
2022-11-27T01:44:56.138Z,15.13
2022-11-27T01:47:34.325Z,9.98
2022-11-27T01:50:14.445Z,8.75
2022-11-27T01:52:45.931Z,8.15
2022-11-27T01:55:22.604Z,10.43
2022-11-27T01:58:13.093Z,12.30
2022-11-27T02:00:44.019Z,8.52
2022-11-27T02:03:13.694Z,8.38
2022-11-27T02:05:43.761Z,9.38
2022-11-27T02:08:15.164Z,9.48
2022-11-27T02:11:04.531Z,9.60
2022-11-27T02:13:50.316Z,6.97
2022-11-27T02:16:35.810Z,9.07
2022-11-27T02:19:23.782Z,10.25
2022-11-27T02:22:00.042Z,9.48
2022-11-27T02:24:57.683Z,7.25
2022-11-27T02:27:48.890Z,7.78
2022-11-27T02:30:18.950Z,7.72
2022-11-27T02:32:48.963Z,9.75
2022-11-27T02:35:24.866Z,10.40
2022-11-27T02:38:12.233Z,9.05
2022-11-27T02:40:57.814Z,11.13
2022-11-27T02:43:47.926Z,11.25
2022-11-27T02:46:25.196Z,8.68
2022-11-27T02:48:57.215Z,7.85
2022-11-27T02:51:41.056Z,7.72
2022-11-27T02:54:13.566Z,7.45
2022-11-27T02:56:43.160Z,8.90
2022-11-27T02:59:13.748Z,8.52
2022-11-27T03:01:45.998Z,7.03
2022-11-27T03:04:18.507Z,9.35
2022-11-27T03:06:56.131Z,8.25
2022-11-27T03:09:36.286Z,8.73
2022-11-27T03:12:06.473Z,6.93
2022-11-27T03:14:37.115Z,6.55
2022-11-27T03:17:28.200Z,9.15
2022-11-27T03:20:11.490Z,10.13
2022-11-27T03:22:41.126Z,9.30
2022-11-27T03:25:11.029Z,8.93
2022-11-27T03:27:50.157Z,11.10
2022-11-27T03:30:20.654Z,9.55
2022-11-27T03:32:50.668Z,7.07
2022-11-27T03:35:23.581Z,7.93
2022-11-27T03:37:53.734Z,10.85
2022-11-27T03:40:24.509Z,8.48
2022-11-27T03:42:58.238Z,8.00
2022-11-27T03:45:28.216Z,8.25
2022-11-27T03:48:35.330Z,8.25
2022-11-27T03:51:05.558Z,8.43
2022-11-27T03:53:57.500Z,7.07
2022-11-27T03:56:45.309Z,10.45
2022-11-27T03:59:31.455Z,7.65
2022-11-27T04:02:00.933Z,8.70
2022-11-27T04:04:31.381Z,10.32
2022-11-27T04:07:01.266Z,8.02
2022-11-27T04:09:32.644Z,12.15
2022-11-27T04:12:02.648Z,9.65
2022-11-27T04:14:32.147Z,10.15
2022-11-27T04:17:02.232Z,9.85
2022-11-27T04:19:32.394Z,9.75
2022-11-27T04:22:02.403Z,13.10
2022-11-27T04:24:31.957Z,11.43
2022-11-27T04:27:01.563Z,14.95
2022-11-27T04:29:33.847Z,10.85
2022-11-27T04:32:03.862Z,17.77
2022-11-27T04:34:34.393Z,10.00
2022-11-27T04:37:04.476Z,15.15
2022-11-27T04:39:39.998Z,11.05
2022-11-27T04:42:10.369Z,12.38
2022-11-27T04:44:40.692Z,10.13
2022-11-27T04:47:10.676Z,13.52
2022-11-27T04:49:40.230Z,17.52
2022-11-27T04:52:11.490Z,17.30
2022-11-27T04:54:42.178Z,17.48
2022-11-27T04:57:12.536Z,17.17
2022-11-27T04:59:42.727Z,17.08
2022-11-27T05:02:13.606Z,16.85
2022-11-27T05:04:44.634Z,17.55
2022-11-27T05:07:14.889Z,12.80
2022-11-27T05:09:44.648Z,33.13
2022-11-27T05:12:14.925Z,17.20
2022-11-27T05:14:44.922Z,19.25
2022-11-27T05:17:14.997Z,18.90
2022-11-27T05:19:44.914Z,19.50
2022-11-27T05:22:14.879Z,28.73
2022-11-27T05:24:44.498Z,26.13
2022-11-27T05:27:14.449Z,23.25
2022-11-27T05:29:44.505Z,22.63
2022-11-27T05:32:14.468Z,16.75
2022-11-27T05:34:44.087Z,24.33
2022-11-27T05:37:19.264Z,22.98
2022-11-27T05:39:49.830Z,26.20
2022-11-27T05:42:19.419Z,25.70
2022-11-27T05:44:53.913Z,19.20
2022-11-27T05:47:26.668Z,22.17
2022-11-27T05:49:56.936Z,25.65
2022-11-27T05:52:26.748Z,22.50
2022-11-27T05:54:57.743Z,22.50
2022-11-27T05:57:29.335Z,25.73
2022-11-27T05:59:59.727Z,24.52
2022-11-27T06:02:29.842Z,26.65
2022-11-27T06:04:59.918Z,36.83
2022-11-27T06:07:31.956Z,33.15
2022-11-27T06:10:02.371Z,43.45
2022-11-27T06:12:35.621Z,47.72
2022-11-27T06:15:05.669Z,48.60
2022-11-27T06:17:35.642Z,48.70
2022-11-27T06:20:07.891Z,63.38
2022-11-27T06:22:38.275Z,61.55
2022-11-27T06:25:08.259Z,64.50
2022-11-27T06:27:40.057Z,65.00
2022-11-27T06:30:10.621Z,66.85
2022-11-27T06:32:41.062Z,69.70
2022-11-27T06:35:10.970Z,69.32
2022-11-27T06:37:40.427Z,77.00
2022-11-27T06:40:10.845Z,68.50
2022-11-27T06:42:40.874Z,68.07
2022-11-27T06:45:11.450Z,57.58
2022-11-27T06:47:41.470Z,65.25
2022-11-27T06:50:11.563Z,63.00
2022-11-27T06:52:41.017Z,62.08
2022-11-27T06:55:12.047Z,59.50
2022-11-27T06:57:42.478Z,62.78
2022-11-27T07:00:12.591Z,56.58
2022-11-27T07:02:42.958Z,54.53
2022-11-27T07:05:13.149Z,45.35
2022-11-27T07:07:44.060Z,45.90
2022-11-27T07:10:14.191Z,58.10
2022-11-27T07:12:44.834Z,59.40
2022-11-27T07:15:15.107Z,45.10
2022-11-27T07:17:45.209Z,41.35
2022-11-27T07:20:15.580Z,43.03
2022-11-27T07:22:45.137Z,46.97
2022-11-27T07:25:16.788Z,41.53
2022-11-27T07:27:47.355Z,39.15
2022-11-27T07:30:17.130Z,42.80
2022-11-27T07:32:47.423Z,36.55
2022-11-27T07:35:17.132Z,49.28
2022-11-27T07:37:46.749Z,48.20
2022-11-27T07:40:16.351Z,43.42
2022-11-27T07:42:46.358Z,48.83
2022-11-27T07:45:18.569Z,40.47
2022-11-27T07:47:48.773Z,44.05
2022-11-27T07:50:18.383Z,43.33
2022-11-27T07:52:47.950Z,45.20
2022-11-27T07:55:17.895Z,36.80
2022-11-27T07:57:48.260Z,49.13
2022-11-27T08:00:18.774Z,45.33
2022-11-27T08:02:48.370Z,43.25
2022-11-27T08:05:18.005Z,48.83
2022-11-27T08:07:48.098Z,44.17
2022-11-27T08:10:18.456Z,43.70
2022-11-27T08:12:48.140Z,48.95
2022-11-27T08:15:18.070Z,44.40
2022-11-27T08:17:48.958Z,45.30
2022-11-27T08:20:20.906Z,44.28
2022-11-27T08:22:50.548Z,50.88
2022-11-27T08:25:20.700Z,44.20
2022-11-27T08:27:50.358Z,44.28
2022-11-27T08:30:20.548Z,45.80
2022-11-27T08:32:50.572Z,38.92
2022-11-27T08:35:20.608Z,38.90
2022-11-27T08:37:50.350Z,35.42
2022-11-27T08:40:20.355Z,38.92
2022-11-27T08:42:49.955Z,41.28
2022-11-27T08:45:19.880Z,34.10
2022-11-27T08:47:49.905Z,30.65
2022-11-27T08:50:19.558Z,30.77
2022-11-27T08:52:49.045Z,31.88
2022-11-27T08:55:18.652Z,32.83
2022-11-27T08:57:48.124Z,31.23
2022-11-27T09:00:20.523Z,27.25
2022-11-27T09:02:53.683Z,31.05
2022-11-27T09:05:24.136Z,26.63
2022-11-27T09:07:55.401Z,25.60
2022-11-27T09:10:25.057Z,29.20
2022-11-27T09:12:57.405Z,25.85
2022-11-27T09:15:27.048Z,28.65
2022-11-27T09:17:57.377Z,25.20
2022-11-27T09:20:27.472Z,26.23
2022-11-27T09:22:57.533Z,27.08
2022-11-27T09:25:27.212Z,24.45
2022-11-27T09:27:59.524Z,24.60
2022-11-27T09:30:29.585Z,21.77
2022-11-27T09:32:59.679Z,30.08
2022-11-27T09:35:29.731Z,23.63
2022-11-27T09:38:00.122Z,19.80
2022-11-27T09:40:30.165Z,25.35
2022-11-27T09:43:10.206Z,25.05
2022-11-27T09:45:52.329Z,19.17
2022-11-27T09:48:26.974Z,15.93
2022-11-27T09:50:56.774Z,19.20
2022-11-27T09:53:29.186Z,15.45
2022-11-27T09:56:00.504Z,17.48
2022-11-27T09:58:41.765Z,15.48
2022-11-27T10:01:35.328Z,19.02
2022-11-27T10:04:12.374Z,19.48
2022-11-27T10:07:19.121Z,18.15
2022-11-27T10:10:01.750Z,19.70
2022-11-27T10:12:43.795Z,16.08
2022-11-27T10:15:18.854Z,16.77
2022-11-27T10:17:51.685Z,18.13
2022-11-27T10:20:29.783Z,22.20
2022-11-27T10:22:59.312Z,20.38
2022-11-27T10:25:53.517Z,19.33
2022-11-27T10:31:35.692Z,18.48
2022-11-27T10:34:27.585Z,17.83
2022-11-27T10:36:57.248Z,18.20
2022-11-27T10:40:02.837Z,19.92
2022-11-27T10:42:48.636Z,15.57
2022-11-27T10:45:51.218Z,17.25
2022-11-27T10:48:21.880Z,16.33
2022-11-27T10:50:51.976Z,15.70
2022-11-27T10:53:35.700Z,13.25
2022-11-27T10:58:59.368Z,14.25
2022-11-27T11:01:31.877Z,15.38
2022-11-27T11:04:31.280Z,13.75
2022-11-27T11:06:59.497Z,15.10
2022-11-27T11:09:33.847Z,16.20
2022-11-27T11:12:24.327Z,14.38
2022-11-27T11:14:58.908Z,14.77
2022-11-27T11:17:38.487Z,15.55
2022-11-27T11:20:24.807Z,18.95
2022-11-27T11:22:54.468Z,14.50
2022-11-27T11:25:32.727Z,15.68
2022-11-27T11:28:02.513Z,15.65
2022-11-27T11:30:39.479Z,14.43
2022-11-27T11:33:12.587Z,15.82
2022-11-27T11:35:42.640Z,15.30
2022-11-27T11:38:18.534Z,13.55
2022-11-27T11:41:03.260Z,15.75
2022-11-27T11:43:37.806Z,15.07
2022-11-27T11:46:09.812Z,13.70
2022-11-27T11:48:39.781Z,14.00
2022-11-27T11:51:16.089Z,13.70
2022-11-27T11:53:58.572Z,16.77
2022-11-27T11:56:42.596Z,16.08
2022-11-27T11:59:18.603Z,16.67
2022-11-27T12:01:55.521Z,15.75
2022-11-27T12:05:03.583Z,15.95
2022-11-27T12:07:47.636Z,14.20
2022-11-27T12:10:22.211Z,14.77
2022-11-27T12:12:51.850Z,16.73
2022-11-27T12:15:24.051Z,13.90
2022-11-27T12:18:09.450Z,13.48
2022-11-27T12:20:47.581Z,13.25
2022-11-27T12:23:38.560Z,15.95
2022-11-27T12:26:29.730Z,15.88
2022-11-27T12:29:37.992Z,13.90
2022-11-27T12:32:16.521Z,10.80
2022-11-27T12:35:07.076Z,13.65
2022-11-27T12:37:37.009Z,15.15
2022-11-27T12:40:23.841Z,15.55
2022-11-27T12:43:27.128Z,15.13
2022-11-27T12:46:01.114Z,13.55
2022-11-27T12:48:38.192Z,14.38
2022-11-27T12:51:13.170Z,47.00
2022-11-27T12:54:18.100Z,12.93
2022-11-27T12:56:49.110Z,14.65
2022-11-27T12:59:24.459Z,16.45
2022-11-27T13:02:11.336Z,13.13
2022-11-27T13:04:54.799Z,13.63
2022-11-27T13:07:39.300Z,15.05
2022-11-27T13:10:22.864Z,11.73
2022-11-27T13:12:59.707Z,15.73
2022-11-27T13:15:59.583Z,14.57
2022-11-27T13:18:36.845Z,16.58
2022-11-27T13:21:13.349Z,12.63
2022-11-27T13:23:43.158Z,13.10
2022-11-27T13:26:37.008Z,12.00
2022-11-27T13:29:39.800Z,14.13
2022-11-27T13:32:09.297Z,20.65
2022-11-27T13:34:44.926Z,13.07
2022-11-27T13:37:36.769Z,12.02
2022-11-27T13:40:09.337Z,9.52
2022-11-27T13:42:42.353Z,11.65
2022-11-27T13:45:23.749Z,11.07
2022-11-27T13:47:53.978Z,10.43
2022-11-27T13:50:29.722Z,11.25
2022-11-27T13:53:05.394Z,9.02
2022-11-27T13:55:41.165Z,7.40
2022-11-27T13:58:11.216Z,10.88
2022-11-27T14:00:47.771Z,8.30
2022-11-27T14:03:31.008Z,8.10
2022-11-27T14:06:00.930Z,9.15
2022-11-27T14:08:37.301Z,7.72
2022-11-27T14:11:07.331Z,9.27
2022-11-27T14:13:43.646Z,20.38
2022-11-27T14:16:35.898Z,12.95
2022-11-27T14:19:08.229Z,15.25
2022-11-27T14:21:43.588Z,13.65
2022-11-27T14:24:36.815Z,17.50
2022-11-27T14:27:21.712Z,17.25
2022-11-27T14:29:52.272Z,23.15
2022-11-27T14:32:22.621Z,11.43
2022-11-27T14:34:52.695Z,17.75
2022-11-27T14:37:23.566Z,35.72
2022-11-27T14:39:53.560Z,23.08
2022-11-27T14:42:30.207Z,17.08
2022-11-27T14:45:09.311Z,19.88
2022-11-27T14:47:54.381Z,21.38
2022-11-27T14:50:24.013Z,20.98
2022-11-27T14:52:57.782Z,27.27
2022-11-27T14:55:33.106Z,31.75
2022-11-27T14:58:04.416Z,33.83
2022-11-27T15:00:34.243Z,38.58
2022-11-27T15:03:11.558Z,33.70
2022-11-27T15:05:41.697Z,28.98
2022-11-27T15:08:16.554Z,25.33
2022-11-27T15:10:46.983Z,28.73
2022-11-27T15:13:23.631Z,26.38
2022-11-27T15:16:03.127Z,21.83
2022-11-27T15:18:34.258Z,17.88
2022-11-27T15:21:04.541Z,19.50
2022-11-27T15:23:35.148Z,14.07
2022-11-27T15:26:09.599Z,17.35
2022-11-27T15:28:42.973Z,15.93
2022-11-27T15:31:35.445Z,20.23
2022-11-27T15:34:20.286Z,21.60
2022-11-27T15:36:51.479Z,20.13
2022-11-27T15:39:23.503Z,16.77
2022-11-27T15:42:03.327Z,18.65
2022-11-27T15:44:33.988Z,18.33
2022-11-27T15:47:05.320Z,17.23
2022-11-27T15:49:35.438Z,18.40
2022-11-27T15:52:05.558Z,12.35
2022-11-27T15:54:35.072Z,12.27
2022-11-27T15:57:04.647Z,15.35
2022-11-27T15:59:34.094Z,13.07
2022-11-27T16:02:04.063Z,13.23
2022-11-27T16:04:34.143Z,19.60
2022-11-27T16:07:04.214Z,12.57
2022-11-27T16:09:34.124Z,9.40
2022-11-27T16:12:04.688Z,8.15
2022-11-27T16:14:34.236Z,13.00
2022-11-27T16:17:03.685Z,5.93
2022-11-27T16:19:33.650Z,11.98
2022-11-27T16:22:03.970Z,11.75
2022-11-27T16:24:33.680Z,10.52
2022-11-27T16:27:03.150Z,10.57
2022-11-27T16:29:32.653Z,12.00
2022-11-27T16:32:04.884Z,8.50
2022-11-27T16:37:06.190Z,7.85
2022-11-27T16:39:36.247Z,8.98
2022-11-27T16:42:06.273Z,10.27
2022-11-27T16:44:37.297Z,8.85
2022-11-27T16:47:07.513Z,10.57
2022-11-27T16:49:37.292Z,9.95
2022-11-27T16:52:08.269Z,6.22
2022-11-27T16:54:38.497Z,6.43
2022-11-27T16:57:09.387Z,7.47
2022-11-27T16:59:39.593Z,9.68
2022-11-27T17:02:10.076Z,8.20
2022-11-27T17:04:40.812Z,7.20
2022-11-27T17:07:11.472Z,7.13
2022-11-27T17:09:43.458Z,5.57
2022-11-27T17:12:13.535Z,9.75
2022-11-27T17:14:44.234Z,5.60
2022-11-27T17:17:15.760Z,9.30
2022-11-27T17:19:47.704Z,7.05
2022-11-27T17:22:17.936Z,4.85
2022-11-27T17:24:47.567Z,6.90
2022-11-27T17:27:20.099Z,6.35
2022-11-27T17:29:50.208Z,6.18
2022-11-27T17:32:21.016Z,7.18
2022-11-27T17:34:51.342Z,6.22
2022-11-27T17:37:21.376Z,8.73
2022-11-27T17:39:51.962Z,4.28
2022-11-27T17:42:22.993Z,4.63
2022-11-27T17:44:53.255Z,6.00
2022-11-27T17:47:23.207Z,5.05
2022-11-27T17:49:52.814Z,5.50
2022-11-27T17:52:22.696Z,5.57
2022-11-27T17:54:52.732Z,3.63
2022-11-27T17:57:23.725Z,5.38
2022-11-27T17:59:53.781Z,3.90
2022-11-27T18:02:24.161Z,4.50
2022-11-27T18:04:54.175Z,4.18
2022-11-27T18:07:23.807Z,5.50
2022-11-27T18:09:55.135Z,5.05
2022-11-27T18:12:25.436Z,3.40
2022-11-27T18:15:01.231Z,2.88
2022-11-27T18:17:32.806Z,8.10
2022-11-27T18:20:03.389Z,3.13
2022-11-27T18:22:33.257Z,4.20
2022-11-27T18:25:02.742Z,5.55
2022-11-27T18:27:33.994Z,5.90
2022-11-27T18:30:05.466Z,4.88
2022-11-27T18:32:37.825Z,4.80
2022-11-27T18:35:08.248Z,5.35
2022-11-27T18:37:39.206Z,3.92
2022-11-27T18:40:10.116Z,3.15
2022-11-27T18:42:40.346Z,3.85
2022-11-27T18:45:31.343Z,4.82
2022-11-27T18:48:00.962Z,3.55
2022-11-27T18:50:31.279Z,3.95
2022-11-27T18:53:01.417Z,3.75
2022-11-27T18:55:35.352Z,4.60
2022-11-27T18:58:05.788Z,4.75
2022-11-27T19:00:37.411Z,3.33
2022-11-27T19:03:07.827Z,3.97
2022-11-27T19:05:38.017Z,3.28
2022-11-27T19:08:10.084Z,6.47
2022-11-27T19:10:40.849Z,3.78
2022-11-27T19:13:10.998Z,3.60
2022-11-27T19:15:43.779Z,2.50
2022-11-27T19:18:13.991Z,4.13
2022-11-27T19:20:43.640Z,4.38
2022-11-27T19:23:13.665Z,3.40
2022-11-27T19:25:44.007Z,3.88
2022-11-27T19:28:14.699Z,4.35
2022-11-27T19:30:45.444Z,2.65
2022-11-27T19:33:15.438Z,3.08
2022-11-27T19:35:45.577Z,2.55
2022-11-27T19:38:15.697Z,2.90
2022-11-27T19:40:45.173Z,3.88
2022-11-27T19:43:16.006Z,3.58
2022-11-27T19:45:45.810Z,2.42
2022-11-27T19:48:21.507Z,7.82
2022-11-27T19:50:53.730Z,2.90
2022-11-27T19:53:24.091Z,3.10
2022-11-27T19:55:56.880Z,1.70
2022-11-27T19:58:26.784Z,2.92
2022-11-27T20:00:57.999Z,2.97
2022-11-27T20:03:27.813Z,2.38
2022-11-27T20:06:08.955Z,3.15
2022-11-27T20:08:38.844Z,5.03
2022-11-27T20:11:11.549Z,3.30
2022-11-27T20:13:41.799Z,2.72
2022-11-27T20:16:14.081Z,1.77
2022-11-27T20:18:43.848Z,1.60
2022-11-27T20:21:15.487Z,2.63
2022-11-27T20:23:45.419Z,2.70
2022-11-27T20:26:16.953Z,2.03
2022-11-27T20:28:47.016Z,3.50
2022-11-27T20:31:25.436Z,3.60
2022-11-27T20:33:58.329Z,3.42
2022-11-27T20:36:28.026Z,2.03
2022-11-27T20:38:57.534Z,3.00
2022-11-27T20:41:27.363Z,1.90
2022-11-27T20:43:59.772Z,2.22
2022-11-27T20:46:30.752Z,2.33
2022-11-27T20:49:01.134Z,2.20
2022-11-27T20:51:35.200Z,2.03
2022-11-27T20:54:10.017Z,4.53
2022-11-27T20:56:41.635Z,3.17
2022-11-27T20:59:11.535Z,1.65
2022-11-27T21:01:42.708Z,4.50
2022-11-27T21:04:22.661Z,1.83
2022-11-27T21:06:52.693Z,2.95
2022-11-27T21:09:23.111Z,4.93
2022-11-27T21:11:53.402Z,1.40
2022-11-27T21:14:23.657Z,4.63
2022-11-27T21:16:54.538Z,3.30
2022-11-27T21:19:28.489Z,2.15
2022-11-27T21:21:58.979Z,1.98
2022-11-27T21:24:29.338Z,2.30
2022-11-27T21:26:59.215Z,2.97
2022-11-27T21:29:29.284Z,2.03
2022-11-27T21:32:00.563Z,3.55
2022-11-27T21:34:30.616Z,4.15
2022-11-27T21:37:00.814Z,1.58
2022-11-27T21:39:33.562Z,1.67
2022-11-27T21:42:03.923Z,1.30
2022-11-27T21:44:37.129Z,1.48
2022-11-27T21:47:12.427Z,2.70
2022-11-27T21:49:42.880Z,3.95
2022-11-27T21:52:12.985Z,4.20
2022-11-27T21:54:44.098Z,1.85
2022-11-27T21:57:15.661Z,2.90
2022-11-27T21:59:45.689Z,2.20
2022-11-27T22:02:15.299Z,3.83
2022-11-27T22:04:45.046Z,3.17
2022-11-27T22:07:15.210Z,2.97
2022-11-27T22:09:44.978Z,2.97
2022-11-27T22:12:14.941Z,4.20
2022-11-27T22:14:44.699Z,3.00
2022-11-27T22:17:14.444Z,3.67
2022-11-27T22:19:44.483Z,1.33
2022-11-27T22:22:16.433Z,1.85
2022-11-27T22:24:46.623Z,3.55
2022-11-27T22:27:16.604Z,2.58
2022-11-27T22:29:46.940Z,3.95
2022-11-27T22:32:17.015Z,3.05
2022-11-27T22:34:47.135Z,2.50
2022-11-27T22:37:18.311Z,4.00
2022-11-27T22:39:47.793Z,3.05
2022-11-27T22:42:17.886Z,1.15
2022-11-27T22:44:48.019Z,2.63
2022-11-27T22:47:17.655Z,4.00
2022-11-27T22:49:47.114Z,2.08
2022-11-27T22:52:18.724Z,3.47
2022-11-27T22:54:48.660Z,3.08
2022-11-27T22:57:19.950Z,2.38
2022-11-27T22:59:51.061Z,2.60
2022-11-27T23:02:21.780Z,2.03
2022-11-27T23:04:51.402Z,2.20
2022-11-27T23:07:25.132Z,4.22
2022-11-27T23:09:55.264Z,2.88
2022-11-27T23:12:24.803Z,1.73
2022-11-27T23:14:54.758Z,2.40
2022-11-27T23:17:24.472Z,2.05
2022-11-27T23:19:54.465Z,2.05
2022-11-27T23:22:24.065Z,4.20
2022-11-27T23:24:55.549Z,5.13
2022-11-27T23:27:25.540Z,8.73
2022-11-27T23:29:55.133Z,2.42
2022-11-27T23:32:25.102Z,2.13
2022-11-27T23:34:55.147Z,6.68
2022-11-27T23:37:24.790Z,2.80
2022-11-27T23:39:54.322Z,2.58
2022-11-27T23:42:24.240Z,3.08
2022-11-27T23:44:53.840Z,1.60
2022-11-27T23:47:23.832Z,2.83
2022-11-27T23:49:53.898Z,4.10
2022-11-27T23:52:24.071Z,3.40
2022-11-27T23:54:54.169Z,6.07
2022-11-27T23:57:24.209Z,2.92
2022-11-27T23:59:53.856Z,3.67
